Oakalla, Texas
Current Conditions -  °F | °C
As of 9:15 PM on Monday 26 Jan 2015 (Local Time) from KLZZ Reporting Station
Clear Clear  
Wind Chill: 55°   Ceiling: Unl
Heat Index: 55°   Visibility: 10mi
Dew Point: 38°   Wind: 5mph
Humidity: 52%   Direction: 260°W
Pressure: 30.16"   Gusts: NA
Location:  30.9326°N, 97.9996°W
Report Text: KLZZ 270315Z AUTO 26004KT 10SM CLR 13/03 A3016 RMK AO2 T01300032
Loading
Personal Weather Stations






























Interactive Weather Map New forecast layout! Learn more

10-Day Weather Forecast

Advertisements
Track Severe Weather on mobile